Delta Virtual Airport Information Service

Marseille Provence Airport

ICAO: LFML Country: France
Latitude: 43.4367 Longitude: 5.215
Latest Arrival : AFR6960631 (LFPO-LFML) Latest Departure : AFR6960631 (LFML-LFPO)


WX CaptureLIVE
Data provided by noaa.gov | Fetched at 12:02:11

METAR : LFML 241600Z AUTO 25010KT CAVOK 17/12 Q1017 NOSIG

TAF : LFML 241400Z 2415/2521 29012KT CAVOK TX22/2513Z TN12/2504Z BECMG 2416/2418 VRB03KT BECMG 2501/2504 11010KT BECMG 2507/2510 15015G25KT BKN020 TEMPO 2510/2516 16020G35KT TEMPO 2516/2521 CAVOK


Runway Data for LFML
Data provided by openaviationdata.com

Runway ID Mag Var Hdg Length Elevation Surface ILS Freq ILS Id ILS Slope
13L -1 135° 11485 ft 10 ft Concrete 110.3 ML 3
13R -1 135° 7784 ft 10 ft Concrete 108.3 MCE 0
31L -1 315° 7784 ft 10 ft Concrete -- -- --
31R -1 315° 11485 ft 10 ft Concrete 111.15 MPV 4

Marseille Provence Airport, France
Use only for reference purposes



Not for navigational purposes.